sensor_id;sensor_type;location;lat;lon;timestamp;P1;durP1;ratioP1;P2;durP2;ratioP2
62037;SDS011;47991;42.974;12.082;2023-02-01T00:00:54;9.20;;;4.40;;
62037;SDS011;47991;42.974;12.082;2023-02-01T00:03:25;9.00;;;4.70;;
62037;SDS011;47991;42.974;12.082;2023-02-01T00:05:58;10.60;;;5.00;;
62037;SDS011;47991;42.974;12.082;2023-02-01T00:08:26;12.10;;;4.60;;
62037;SDS011;47991;42.974;12.082;2023-02-01T00:11:03;13.70;;;4.60;;
62037;SDS011;47991;42.974;12.082;2023-02-01T00:13:32;8.20;;;4.00;;
62037;SDS011;47991;42.974;12.082;2023-02-01T00:16:03;8.90;;;4.10;;
62037;SDS011;47991;42.974;12.082;2023-02-01T00:20:57;10.40;;;4.60;;
62037;SDS011;47991;42.974;12.082;2023-02-01T00:23:23;12.70;;;5.20;;
62037;SDS011;47991;42.974;12.082;2023-02-01T00:25:50;10.00;;;4.60;;
62037;SDS011;47991;42.974;12.082;2023-02-01T00:28:17;8.70;;;3.60;;
62037;SDS011;47991;42.974;12.082;2023-02-01T00:30:43;9.30;;;3.90;;
62037;SDS011;47991;42.974;12.082;2023-02-01T00:33:10;9.30;;;3.90;;
62037;SDS011;47991;42.974;12.082;2023-02-01T00:35:36;8.10;;;3.30;;
62037;SDS011;47991;42.974;12.082;2023-02-01T00:38:03;9.30;;;4.10;;
62037;SDS011;47991;42.974;12.082;2023-02-01T00:40:29;9.70;;;3.70;;
62037;SDS011;47991;42.974;12.082;2023-02-01T00:42:56;9.70;;;4.40;;
62037;SDS011;47991;42.974;12.082;2023-02-01T00:45:23;11.40;;;3.90;;
62037;SDS011;47991;42.974;12.082;2023-02-01T00:47:50;8.60;;;3.70;;
62037;SDS011;47991;42.974;12.082;2023-02-01T00:50:17;10.00;;;3.90;;
62037;SDS011;47991;42.974;12.082;2023-02-01T00:52:43;8.10;;;3.40;;
62037;SDS011;47991;42.974;12.082;2023-02-01T00:55:10;8.70;;;3.30;;
62037;SDS011;47991;42.974;12.082;2023-02-01T00:57:36;8.40;;;3.50;;
62037;SDS011;47991;42.974;12.082;2023-02-01T01:00:03;10.20;;;3.60;;
62037;SDS011;47991;42.974;12.082;2023-02-01T01:02:31;9.50;;;4.00;;
62037;SDS011;47991;42.974;12.082;2023-02-01T01:04:57;7.10;;;3.60;;
62037;SDS011;47991;42.974;12.082;2023-02-01T01:07:24;9.10;;;3.60;;
62037;SDS011;47991;42.974;12.082;2023-02-01T01:09:50;8.70;;;3.40;;
62037;SDS011;47991;42.974;12.082;2023-02-01T01:12:17;7.70;;;3.20;;
62037;SDS011;47991;42.974;12.082;2023-02-01T01:14:46;8.70;;;3.50;;
62037;SDS011;47991;42.974;12.082;2023-02-01T01:17:12;7.70;;;3.30;;
62037;SDS011;47991;42.974;12.082;2023-02-01T01:19:39;8.40;;;3.70;;
62037;SDS011;47991;42.974;12.082;2023-02-01T01:22:05;8.10;;;4.00;;
62037;SDS011;47991;42.974;12.082;2023-02-01T01:24:32;7.90;;;3.40;;
62037;SDS011;47991;42.974;12.082;2023-02-01T01:26:59;9.80;;;3.50;;
62037;SDS011;47991;42.974;12.082;2023-02-01T01:29:25;9.10;;;3.40;;
62037;SDS011;47991;42.974;12.082;2023-02-01T01:31:52;7.80;;;3.50;;
62037;SDS011;47991;42.974;12.082;2023-02-01T01:34:18;7.70;;;3.50;;
62037;SDS011;47991;42.974;12.082;2023-02-01T01:36:45;8.90;;;3.70;;
62037;SDS011;47991;42.974;12.082;2023-02-01T01:39:11;9.40;;;4.00;;
62037;SDS011;47991;42.974;12.082;2023-02-01T01:41:38;10.10;;;3.60;;
62037;SDS011;47991;42.974;12.082;2023-02-01T01:47:18;8.70;;;3.80;;
62037;SDS011;47991;42.974;12.082;2023-02-01T01:49:44;7.30;;;3.60;;
62037;SDS011;47991;42.974;12.082;2023-02-01T01:52:11;9.90;;;3.30;;
62037;SDS011;47991;42.974;12.082;2023-02-01T01:54:40;7.20;;;3.50;;
62037;SDS011;47991;42.974;12.082;2023-02-01T01:57:12;9.30;;;3.80;;
62037;SDS011;47991;42.974;12.082;2023-02-01T01:59:43;9.40;;;3.80;;
62037;SDS011;47991;42.974;12.082;2023-02-01T02:02:14;8.00;;;3.20;;
62037;SDS011;47991;42.974;12.082;2023-02-01T02:04:41;6.90;;;3.30;;
62037;SDS011;47991;42.974;12.082;2023-02-01T02:07:10;9.40;;;4.00;;
62037;SDS011;47991;42.974;12.082;2023-02-01T02:09:40;8.10;;;3.30;;
62037;SDS011;47991;42.974;12.082;2023-02-01T02:12:09;9.70;;;3.40;;
62037;SDS011;47991;42.974;12.082;2023-02-01T02:14:35;8.00;;;3.60;;
62037;SDS011;47991;42.974;12.082;2023-02-01T02:34:28;8.60;;;3.30;;
62037;SDS011;47991;42.974;12.082;2023-02-01T02:37:11;7.90;;;3.60;;
62037;SDS011;47991;42.974;12.082;2023-02-01T02:39:55;7.50;;;3.50;;
62037;SDS011;47991;42.974;12.082;2023-02-01T02:42:42;8.20;;;3.40;;
62037;SDS011;47991;42.974;12.082;2023-02-01T02:45:29;7.60;;;3.50;;
62037;SDS011;47991;42.974;12.082;2023-02-01T02:51:08;10.30;;;3.30;;
62037;SDS011;47991;42.974;12.082;2023-02-01T02:54:13;9.70;;;4.00;;
62037;SDS011;47991;42.974;12.082;2023-02-01T02:57:06;10.90;;;3.70;;
62037;SDS011;47991;42.974;12.082;2023-02-01T02:59:56;10.00;;;3.90;;
62037;SDS011;47991;42.974;12.082;2023-02-01T03:02:44;8.60;;;3.90;;
62037;SDS011;47991;42.974;12.082;2023-02-01T03:05:32;8.60;;;3.60;;
62037;SDS011;47991;42.974;12.082;2023-02-01T03:08:04;9.80;;;3.50;;
62037;SDS011;47991;42.974;12.082;2023-02-01T03:21:05;7.80;;;3.00;;
62037;SDS011;47991;42.974;12.082;2023-02-01T03:23:36;8.60;;;3.30;;
62037;SDS011;47991;42.974;12.082;2023-02-01T03:26:05;7.00;;;3.00;;
62037;SDS011;47991;42.974;12.082;2023-02-01T03:28:36;8.10;;;3.40;;
62037;SDS011;47991;42.974;12.082;2023-02-01T03:31:08;8.40;;;3.50;;
62037;SDS011;47991;42.974;12.082;2023-02-01T03:33:38;8.70;;;3.30;;
62037;SDS011;47991;42.974;12.082;2023-02-01T03:39:00;8.50;;;3.90;;
62037;SDS011;47991;42.974;12.082;2023-02-01T03:44:13;8.50;;;3.50;;
62037;SDS011;47991;42.974;12.082;2023-02-01T03:47:26;8.60;;;3.70;;
62037;SDS011;47991;42.974;12.082;2023-02-01T03:50:33;12.60;;;3.70;;
62037;SDS011;47991;42.974;12.082;2023-02-01T03:52:43;8.00;;;3.20;;
62037;SDS011;47991;42.974;12.082;2023-02-01T03:55:18;7.90;;;3.40;;
62037;SDS011;47991;42.974;12.082;2023-02-01T03:57:59;9.00;;;4.10;;
62037;SDS011;47991;42.974;12.082;2023-02-01T04:00:28;8.40;;;3.90;;
62037;SDS011;47991;42.974;12.082;2023-02-01T04:02:55;9.20;;;4.10;;
62037;SDS011;47991;42.974;12.082;2023-02-01T04:05:22;7.50;;;3.40;;
62037;SDS011;47991;42.974;12.082;2023-02-01T04:08:01;9.90;;;3.80;;
62037;SDS011;47991;42.974;12.082;2023-02-01T04:10:28;8.70;;;3.50;;
62037;SDS011;47991;42.974;12.082;2023-02-01T04:12:55;10.10;;;3.50;;
62037;SDS011;47991;42.974;12.082;2023-02-01T04:15:21;8.70;;;3.90;;
62037;SDS011;47991;42.974;12.082;2023-02-01T04:17:48;8.50;;;3.80;;
62037;SDS011;47991;42.974;12.082;2023-02-01T04:20:14;7.90;;;3.80;;
62037;SDS011;47991;42.974;12.082;2023-02-01T04:22:41;10.10;;;3.60;;
62037;SDS011;47991;42.974;12.082;2023-02-01T04:25:08;7.90;;;3.90;;
62037;SDS011;47991;42.974;12.082;2023-02-01T04:27:35;8.70;;;3.50;;
62037;SDS011;47991;42.974;12.082;2023-02-01T04:30:02;7.70;;;3.30;;
62037;SDS011;47991;42.974;12.082;2023-02-01T04:32:31;8.20;;;3.70;;
62037;SDS011;47991;42.974;12.082;2023-02-01T04:34:57;10.60;;;4.10;;
62037;SDS011;47991;42.974;12.082;2023-02-01T04:37:24;9.70;;;3.70;;
62037;SDS011;47991;42.974;12.082;2023-02-01T04:39:50;8.00;;;4.10;;
62037;SDS011;47991;42.974;12.082;2023-02-01T04:42:17;7.30;;;3.10;;
62037;SDS011;47991;42.974;12.082;2023-02-01T04:44:43;9.20;;;3.90;;
62037;SDS011;47991;42.974;12.082;2023-02-01T04:47:10;13.30;;;6.10;;
62037;SDS011;47991;42.974;12.082;2023-02-01T04:49:36;9.70;;;3.90;;
62037;SDS011;47991;42.974;12.082;2023-02-01T04:52:03;9.90;;;4.10;;
62037;SDS011;47991;42.974;12.082;2023-02-01T04:54:30;8.00;;;4.00;;
62037;SDS011;47991;42.974;12.082;2023-02-01T04:56:56;10.30;;;4.60;;
62037;SDS011;47991;42.974;12.082;2023-02-01T04:59:23;11.90;;;6.00;;
62037;SDS011;47991;42.974;12.082;2023-02-01T05:01:50;11.20;;;5.80;;
62037;SDS011;47991;42.974;12.082;2023-02-01T05:04:16;11.00;;;5.00;;
62037;SDS011;47991;42.974;12.082;2023-02-01T05:06:46;8.40;;;4.70;;
62037;SDS011;47991;42.974;12.082;2023-02-01T05:09:12;8.60;;;4.50;;
62037;SDS011;47991;42.974;12.082;2023-02-01T05:11:39;9.50;;;4.70;;
62037;SDS011;47991;42.974;12.082;2023-02-01T05:14:24;10.20;;;4.40;;
62037;SDS011;47991;42.974;12.082;2023-02-01T05:16:51;10.10;;;4.60;;
62037;SDS011;47991;42.974;12.082;2023-02-01T05:19:17;10.60;;;4.40;;
62037;SDS011;47991;42.974;12.082;2023-02-01T05:21:44;12.90;;;5.30;;
62037;SDS011;47991;42.974;12.082;2023-02-01T05:24:11;10.50;;;5.30;;
62037;SDS011;47991;42.974;12.082;2023-02-01T05:26:46;10.80;;;5.00;;
62037;SDS011;47991;42.974;12.082;2023-02-01T05:29:14;10.90;;;4.90;;
62037;SDS011;47991;42.974;12.082;2023-02-01T05:31:43;10.60;;;5.20;;
62037;SDS011;47991;42.974;12.082;2023-02-01T05:34:11;10.80;;;6.20;;
62037;SDS011;47991;42.974;12.082;2023-02-01T05:36:38;12.80;;;6.50;;
62037;SDS011;47991;42.974;12.082;2023-02-01T05:39:05;14.70;;;7.90;;
62037;SDS011;47991;42.974;12.082;2023-02-01T05:41:31;10.90;;;6.40;;
62037;SDS011;47991;42.974;12.082;2023-02-01T05:43:58;13.20;;;6.10;;
62037;SDS011;47991;42.974;12.082;2023-02-01T05:46:24;11.00;;;5.60;;
62037;SDS011;47991;42.974;12.082;2023-02-01T05:48:51;10.70;;;6.20;;
62037;SDS011;47991;42.974;12.082;2023-02-01T05:51:17;13.90;;;7.30;;
62037;SDS011;47991;42.974;12.082;2023-02-01T05:53:44;12.30;;;7.00;;
62037;SDS011;47991;42.974;12.082;2023-02-01T05:56:10;13.90;;;7.30;;
62037;SDS011;47991;42.974;12.082;2023-02-01T05:58:37;13.40;;;7.00;;
62037;SDS011;47991;42.974;12.082;2023-02-01T06:01:04;14.00;;;7.20;;
62037;SDS011;47991;42.974;12.082;2023-02-01T06:03:30;14.40;;;8.20;;
62037;SDS011;47991;42.974;12.082;2023-02-01T06:05:58;17.10;;;8.90;;
62037;SDS011;47991;42.974;12.082;2023-02-01T06:08:27;17.90;;;9.40;;
62037;SDS011;47991;42.974;12.082;2023-02-01T06:11:01;16.00;;;7.60;;
62037;SDS011;47991;42.974;12.082;2023-02-01T06:13:29;13.30;;;6.50;;
62037;SDS011;47991;42.974;12.082;2023-02-01T06:15:56;17.20;;;7.00;;
62037;SDS011;47991;42.974;12.082;2023-02-01T06:18:23;11.60;;;6.60;;
62037;SDS011;47991;42.974;12.082;2023-02-01T06:20:57;11.90;;;6.10;;
62037;SDS011;47991;42.974;12.082;2023-02-01T06:23:26;11.70;;;5.50;;
62037;SDS011;47991;42.974;12.082;2023-02-01T06:25:58;14.00;;;7.50;;
62037;SDS011;47991;42.974;12.082;2023-02-01T06:28:30;15.80;;;8.70;;
62037;SDS011;47991;42.974;12.082;2023-02-01T06:30:57;16.50;;;7.90;;
62037;SDS011;47991;42.974;12.082;2023-02-01T06:33:24;13.50;;;8.10;;
62037;SDS011;47991;42.974;12.082;2023-02-01T06:35:57;14.80;;;9.00;;
62037;SDS011;47991;42.974;12.082;2023-02-01T06:38:25;15.90;;;9.10;;
62037;SDS011;47991;42.974;12.082;2023-02-01T06:40:52;16.10;;;9.90;;
62037;SDS011;47991;42.974;12.082;2023-02-01T06:43:22;17.50;;;9.80;;
62037;SDS011;47991;42.974;12.082;2023-02-01T06:45:50;14.60;;;7.70;;
62037;SDS011;47991;42.974;12.082;2023-02-01T06:48:17;12.60;;;7.00;;
62037;SDS011;47991;42.974;12.082;2023-02-01T06:50:45;13.20;;;6.70;;
62037;SDS011;47991;42.974;12.082;2023-02-01T06:53:11;13.10;;;6.70;;
62037;SDS011;47991;42.974;12.082;2023-02-01T06:55:38;10.70;;;6.30;;
62037;SDS011;47991;42.974;12.082;2023-02-01T06:58:04;10.50;;;5.90;;
62037;SDS011;47991;42.974;12.082;2023-02-01T07:00:31;12.50;;;7.00;;
62037;SDS011;47991;42.974;12.082;2023-02-01T07:02:58;14.50;;;8.40;;
62037;SDS011;47991;42.974;12.082;2023-02-01T07:05:26;12.60;;;7.80;;
62037;SDS011;47991;42.974;12.082;2023-02-01T07:07:53;15.30;;;8.80;;
62037;SDS011;47991;42.974;12.082;2023-02-01T07:10:20;16.80;;;9.30;;
62037;SDS011;47991;42.974;12.082;2023-02-01T07:12:46;14.90;;;9.00;;
62037;SDS011;47991;42.974;12.082;2023-02-01T07:15:13;15.70;;;8.20;;
62037;SDS011;47991;42.974;12.082;2023-02-01T07:17:40;14.20;;;7.90;;
62037;SDS011;47991;42.974;12.082;2023-02-01T07:20:06;12.00;;;6.60;;
62037;SDS011;47991;42.974;12.082;2023-02-01T07:22:33;13.50;;;6.80;;
62037;SDS011;47991;42.974;12.082;2023-02-01T07:25:00;17.00;;;7.20;;
62037;SDS011;47991;42.974;12.082;2023-02-01T07:27:26;15.00;;;7.20;;
62037;SDS011;47991;42.974;12.082;2023-02-01T07:29:53;13.10;;;6.60;;
62037;SDS011;47991;42.974;12.082;2023-02-01T07:32:21;13.70;;;6.70;;
62037;SDS011;47991;42.974;12.082;2023-02-01T07:34:47;12.80;;;7.20;;
62037;SDS011;47991;42.974;12.082;2023-02-01T07:37:14;13.90;;;8.20;;
62037;SDS011;47991;42.974;12.082;2023-02-01T07:39:41;12.60;;;7.10;;
62037;SDS011;47991;42.974;12.082;2023-02-01T07:42:07;11.10;;;6.60;;
62037;SDS011;47991;42.974;12.082;2023-02-01T07:44:34;13.20;;;8.10;;
62037;SDS011;47991;42.974;12.082;2023-02-01T07:47:00;19.50;;;10.60;;
62037;SDS011;47991;42.974;12.082;2023-02-01T07:49:27;16.80;;;9.40;;
62037;SDS011;47991;42.974;12.082;2023-02-01T07:51:53;25.20;;;13.50;;
62037;SDS011;47991;42.974;12.082;2023-02-01T07:54:20;14.10;;;7.90;;
62037;SDS011;47991;42.974;12.082;2023-02-01T07:56:46;18.20;;;7.40;;
62037;SDS011;47991;42.974;12.082;2023-02-01T07:59:13;15.50;;;8.00;;
62037;SDS011;47991;42.974;12.082;2023-02-01T08:01:41;15.00;;;7.40;;
62037;SDS011;47991;42.974;12.082;2023-02-01T08:04:09;12.70;;;6.10;;
62037;SDS011;47991;42.974;12.082;2023-02-01T08:06:37;12.20;;;6.80;;
62037;SDS011;47991;42.974;12.082;2023-02-01T08:09:05;15.30;;;6.70;;
62037;SDS011;47991;42.974;12.082;2023-02-01T08:11:34;14.80;;;7.70;;
62037;SDS011;47991;42.974;12.082;2023-02-01T08:14:04;12.60;;;6.70;;
62037;SDS011;47991;42.974;12.082;2023-02-01T08:16:31;15.50;;;8.80;;
62037;SDS011;47991;42.974;12.082;2023-02-01T08:19:01;13.50;;;7.60;;
62037;SDS011;47991;42.974;12.082;2023-02-01T08:21:28;13.60;;;7.60;;
62037;SDS011;47991;42.974;12.082;2023-02-01T08:24:03;15.50;;;7.40;;
62037;SDS011;47991;42.974;12.082;2023-02-01T08:26:31;14.50;;;7.90;;
62037;SDS011;47991;42.974;12.082;2023-02-01T08:28:59;16.80;;;8.90;;
62037;SDS011;47991;42.974;12.082;2023-02-01T08:33:56;15.80;;;8.00;;
62037;SDS011;47991;42.974;12.082;2023-02-01T08:36:25;16.20;;;8.80;;
62037;SDS011;47991;42.974;12.082;2023-02-01T08:38:53;16.60;;;8.00;;
62037;SDS011;47991;42.974;12.082;2023-02-01T08:41:21;15.90;;;8.40;;
62037;SDS011;47991;42.974;12.082;2023-02-01T08:43:49;16.30;;;8.40;;
62037;SDS011;47991;42.974;12.082;2023-02-01T08:46:16;14.70;;;8.00;;
62037;SDS011;47991;42.974;12.082;2023-02-01T08:48:44;15.10;;;8.10;;
62037;SDS011;47991;42.974;12.082;2023-02-01T08:51:12;16.50;;;8.80;;
62037;SDS011;47991;42.974;12.082;2023-02-01T08:53:41;17.20;;;10.00;;
62037;SDS011;47991;42.974;12.082;2023-02-01T08:56:08;16.60;;;8.60;;
62037;SDS011;47991;42.974;12.082;2023-02-01T08:58:37;16.50;;;8.50;;
62037;SDS011;47991;42.974;12.082;2023-02-01T09:01:07;17.70;;;9.10;;
62037;SDS011;47991;42.974;12.082;2023-02-01T09:03:36;19.80;;;11.30;;
62037;SDS011;47991;42.974;12.082;2023-02-01T09:06:06;16.30;;;9.40;;
62037;SDS011;47991;42.974;12.082;2023-02-01T09:08:34;19.80;;;10.60;;
62037;SDS011;47991;42.974;12.082;2023-02-01T09:11:01;20.20;;;10.20;;
62037;SDS011;47991;42.974;12.082;2023-02-01T09:13:37;15.10;;;9.60;;
62037;SDS011;47991;42.974;12.082;2023-02-01T09:16:04;43.50;;;21.40;;
62037;SDS011;47991;42.974;12.082;2023-02-01T09:18:30;18.70;;;11.50;;
62037;SDS011;47991;42.974;12.082;2023-02-01T09:20:57;29.10;;;13.80;;
62037;SDS011;47991;42.974;12.082;2023-02-01T09:23:24;18.30;;;9.30;;
62037;SDS011;47991;42.974;12.082;2023-02-01T09:25:51;19.30;;;9.20;;
62037;SDS011;47991;42.974;12.082;2023-02-01T09:28:18;19.00;;;10.10;;
62037;SDS011;47991;42.974;12.082;2023-02-01T09:30:45;16.70;;;10.10;;
62037;SDS011;47991;42.974;12.082;2023-02-01T09:33:11;21.10;;;11.00;;
62037;SDS011;47991;42.974;12.082;2023-02-01T09:35:38;19.10;;;9.60;;
62037;SDS011;47991;42.974;12.082;2023-02-01T09:38:05;19.80;;;10.10;;
62037;SDS011;47991;42.974;12.082;2023-02-01T09:40:33;14.90;;;9.10;;
62037;SDS011;47991;42.974;12.082;2023-02-01T09:48:21;19.30;;;12.10;;
62037;SDS011;47991;42.974;12.082;2023-02-01T09:53:35;17.40;;;10.40;;
62037;SDS011;47991;42.974;12.082;2023-02-01T09:56:06;14.80;;;9.50;;
62037;SDS011;47991;42.974;12.082;2023-02-01T09:58:46;15.10;;;8.20;;
62037;SDS011;47991;42.974;12.082;2023-02-01T10:01:19;22.20;;;10.70;;
62037;SDS011;47991;42.974;12.082;2023-02-01T10:03:50;17.70;;;10.60;;
62037;SDS011;47991;42.974;12.082;2023-02-01T10:09:15;17.20;;;10.10;;
62037;SDS011;47991;42.974;12.082;2023-02-01T10:40:42;18.10;;;10.00;;
62037;SDS011;47991;42.974;12.082;2023-02-01T10:56:21;18.40;;;9.90;;
62037;SDS011;47991;42.974;12.082;2023-02-01T11:20:49;26.70;;;14.00;;
62037;SDS011;47991;42.974;12.082;2023-02-01T11:32:00;9.10;;;4.30;;
62037;SDS011;47991;42.974;12.082;2023-02-01T12:18:57;6.60;;;2.60;;
62037;SDS011;47991;42.974;12.082;2023-02-01T12:38:44;8.30;;;2.90;;
62037;SDS011;47991;42.974;12.082;2023-02-01T12:58:58;8.80;;;3.40;;
62037;SDS011;47991;42.974;12.082;2023-02-01T13:15:28;8.40;;;3.30;;
62037;SDS011;47991;42.974;12.082;2023-02-01T13:40:16;6.10;;;2.40;;
62037;SDS011;47991;42.974;12.082;2023-02-01T13:44:50;8.10;;;3.10;;
62037;SDS011;47991;42.974;12.082;2023-02-01T14:04:50;10.10;;;3.10;;
62037;SDS011;47991;42.974;12.082;2023-02-01T14:24:51;9.50;;;2.90;;
62037;SDS011;47991;42.974;12.082;2023-02-01T14:36:01;7.70;;;2.70;;
62037;SDS011;47991;42.974;12.082;2023-02-01T14:51:30;15.80;;;2.90;;
62037;SDS011;47991;42.974;12.082;2023-02-01T15:07:05;6.50;;;2.40;;
62037;SDS011;47991;42.974;12.082;2023-02-01T15:22:53;7.80;;;2.50;;
62037;SDS011;47991;42.974;12.082;2023-02-01T15:42:58;5.70;;;2.30;;
62037;SDS011;47991;42.974;12.082;2023-02-01T15:54:12;8.30;;;2.70;;
62037;SDS011;47991;42.974;12.082;2023-02-01T16:14:21;8.00;;;2.90;;
62037;SDS011;47991;42.974;12.082;2023-02-01T16:25:30;8.00;;;3.10;;
62037;SDS011;47991;42.974;12.082;2023-02-01T16:45:47;10.30;;;3.50;;
62037;SDS011;47991;42.974;12.082;2023-02-01T16:56:57;6.90;;;3.00;;
62037;SDS011;47991;42.974;12.082;2023-02-01T17:12:36;9.60;;;4.00;;
62037;SDS011;47991;42.974;12.082;2023-02-01T17:23:39;9.00;;;3.70;;
62037;SDS011;47991;42.974;12.082;2023-02-01T17:34:56;10.10;;;3.90;;
62037;SDS011;47991;42.974;12.082;2023-02-01T17:50:36;8.20;;;3.20;;
62037;SDS011;47991;42.974;12.082;2023-02-01T18:06:18;7.70;;;3.60;;
62037;SDS011;47991;42.974;12.082;2023-02-01T18:22:01;11.30;;;3.80;;
62037;SDS011;47991;42.974;12.082;2023-02-01T18:33:11;8.60;;;3.80;;
62037;SDS011;47991;42.974;12.082;2023-02-01T18:44:22;9.00;;;4.20;;
62037;SDS011;47991;42.974;12.082;2023-02-01T19:04:11;10.50;;;3.80;;
62037;SDS011;47991;42.974;12.082;2023-02-01T23:39:21;9.20;;;3.30;;
62037;SDS011;47991;42.974;12.082;2023-02-01T23:41:48;8.00;;;3.50;;
62037;SDS011;47991;42.974;12.082;2023-02-01T23:44:15;10.30;;;3.70;;
62037;SDS011;47991;42.974;12.082;2023-02-01T23:46:42;9.80;;;3.80;;
62037;SDS011;47991;42.974;12.082;2023-02-01T23:49:13;10.20;;;3.10;;
62037;SDS011;47991;42.974;12.082;2023-02-01T23:51:41;11.30;;;3.60;;
62037;SDS011;47991;42.974;12.082;2023-02-01T23:54:09;10.80;;;4.30;;
62037;SDS011;47991;42.974;12.082;2023-02-01T23:56:38;8.80;;;3.60;;
62037;SDS011;47991;42.974;12.082;2023-02-01T23:59:08;8.50;;;3.50;;
